createdAt,value
2017-07-23T00:00:16.711Z,1005.14
2017-07-23T00:00:42.927Z,1005.13
2017-07-23T00:01:09.045Z,1005.17
2017-07-23T00:01:35.251Z,1005.17
2017-07-23T00:02:01.415Z,1005.16
2017-07-23T00:02:27.641Z,1005.16
2017-07-23T00:02:53.817Z,1005.15
2017-07-23T00:03:19.955Z,1005.15
2017-07-23T00:03:46.118Z,1005.11
2017-07-23T00:04:12.330Z,1005.11
2017-07-23T00:04:38.469Z,1005.08
2017-07-23T00:05:04.596Z,1005.09
2017-07-23T00:05:30.724Z,1005.08
2017-07-23T00:05:56.830Z,1005.06
2017-07-23T00:06:23.044Z,1005.06
2017-07-23T00:06:49.190Z,1005.08
2017-07-23T00:07:15.380Z,1005.05
2017-07-23T00:07:41.530Z,1005.07
2017-07-23T00:08:07.700Z,1005.06
2017-07-23T00:08:33.917Z,1005.05
2017-07-23T00:09:00.062Z,1005
2017-07-23T00:09:26.195Z,1004.96
2017-07-23T00:09:52.409Z,1004.97
2017-07-23T00:10:18.537Z,1004.98
2017-07-23T00:10:44.646Z,1004.94
2017-07-23T00:11:10.819Z,1004.88
2017-07-23T00:11:36.974Z,1004.87
2017-07-23T00:12:03.089Z,1004.87
2017-07-23T00:12:29.244Z,1004.85
2017-07-23T00:12:55.410Z,1004.84
2017-07-23T00:13:21.583Z,1004.84
2017-07-23T00:13:47.805Z,1004.87
2017-07-23T00:14:13.944Z,1004.87
2017-07-23T00:14:40.144Z,1004.88
2017-07-23T00:15:06.360Z,1004.96
2017-07-23T00:15:32.502Z,1004.95
2017-07-23T00:15:58.668Z,1004.95
2017-07-23T00:16:24.832Z,1004.98
2017-07-23T00:16:51.001Z,1005
2017-07-23T00:17:17.141Z,1004.99
2017-07-23T00:17:43.301Z,1005.01
2017-07-23T00:18:09.475Z,1005.01
2017-07-23T00:18:35.696Z,1005.02
2017-07-23T00:19:01.869Z,1005.03
2017-07-23T00:19:28.010Z,1005.02
2017-07-23T00:19:54.168Z,1004.95
2017-07-23T00:20:20.350Z,1004.96
2017-07-23T00:20:46.517Z,1004.97
2017-07-23T00:21:12.676Z,1005.01
2017-07-23T00:21:38.793Z,1004.93
2017-07-23T00:22:04.964Z,1004.97
2017-07-23T00:22:31.111Z,1004.96
2017-07-23T00:22:57.245Z,1004.95
2017-07-23T00:23:23.373Z,1005.01
2017-07-23T00:23:49.522Z,1005
2017-07-23T00:24:15.659Z,1004.99
2017-07-23T00:24:41.813Z,1005.02
2017-07-23T00:25:08.023Z,1004.99
2017-07-23T00:25:34.160Z,1004.97
2017-07-23T00:26:00.379Z,1004.98
2017-07-23T00:26:26.562Z,1004.99
2017-07-23T00:26:52.670Z,1004.97
2017-07-23T00:27:18.814Z,1004.99
2017-07-23T00:27:45.002Z,1005.02
2017-07-23T00:28:11.166Z,1004.98
2017-07-23T00:28:37.367Z,1004.97
2017-07-23T00:29:03.511Z,1004.95
2017-07-23T00:29:29.749Z,1004.96
2017-07-23T00:29:55.935Z,1004.98
2017-07-23T00:30:22.070Z,1005
2017-07-23T00:30:48.274Z,1004.98
2017-07-23T00:31:14.463Z,1004.98
2017-07-23T00:31:40.604Z,1004.95
2017-07-23T00:32:06.751Z,1004.95
2017-07-23T00:32:32.968Z,1004.96
2017-07-23T00:32:59.117Z,1004.96
2017-07-23T00:33:25.290Z,1005.01
2017-07-23T00:33:51.479Z,1005.01
2017-07-23T00:34:17.660Z,1005.06
2017-07-23T00:34:43.828Z,1005.01
2017-07-23T00:35:09.986Z,1005.02
2017-07-23T00:35:36.173Z,1005.06
2017-07-23T00:36:02.366Z,1005.08
2017-07-23T00:36:28.549Z,1005.08
2017-07-23T00:36:54.767Z,1005.05
2017-07-23T00:37:20.932Z,1005.04
2017-07-23T00:37:47.051Z,1005.07
2017-07-23T00:38:13.264Z,1005.08
2017-07-23T00:38:39.376Z,1005.08
2017-07-23T00:39:05.545Z,1005.1
2017-07-23T00:39:31.736Z,1005.09
2017-07-23T00:39:57.934Z,1005.09
2017-07-23T00:40:24.126Z,1005.1
2017-07-23T00:40:50.312Z,1005.07
2017-07-23T00:41:16.433Z,1005.09
2017-07-23T00:41:42.557Z,1005.08
2017-07-23T00:42:08.694Z,1005.07
2017-07-23T00:42:34.809Z,1005.05
2017-07-23T00:43:01.002Z,1005.07
2017-07-23T00:43:27.145Z,1005.07
2017-07-23T00:43:53.287Z,1005.06
2017-07-23T00:44:19.447Z,1005.05
2017-07-23T00:44:45.658Z,1005.07
2017-07-23T00:45:11.800Z,1005.03
2017-07-23T00:45:37.923Z,1005.04
2017-07-23T00:46:04.094Z,1005.04
2017-07-23T00:46:30.255Z,1005.03
2017-07-23T00:46:56.372Z,1005.03
2017-07-23T00:47:22.536Z,1005.02
2017-07-23T00:47:48.697Z,1005.04
2017-07-23T00:48:14.869Z,1005
2017-07-23T00:48:41.039Z,1005.01
2017-07-23T00:49:07.250Z,1004.99
2017-07-23T00:49:33.454Z,1004.98
2017-07-23T00:49:59.593Z,1004.98
2017-07-23T00:50:25.777Z,1005
2017-07-23T00:50:51.939Z,1004.97
2017-07-23T00:51:18.077Z,1004.98
2017-07-23T00:51:44.221Z,1004.97
2017-07-23T00:52:10.354Z,1004.95
2017-07-23T00:52:36.609Z,1004.92
2017-07-23T00:53:02.824Z,1004.93
2017-07-23T00:53:29.017Z,1004.87
2017-07-23T00:53:55.228Z,1004.88
2017-07-23T00:54:21.357Z,1004.91
2017-07-23T00:54:47.489Z,1004.84
2017-07-23T00:55:13.695Z,1004.88
2017-07-23T00:55:39.856Z,1004.89
2017-07-23T00:56:05.999Z,1004.88
2017-07-23T00:56:32.112Z,1004.89
2017-07-23T00:56:58.263Z,1004.89
2017-07-23T00:57:24.449Z,1004.87
2017-07-23T00:57:50.634Z,1004.84
2017-07-23T00:58:16.742Z,1004.84
2017-07-23T00:58:42.894Z,1004.87
2017-07-23T00:59:09.079Z,1004.85
2017-07-23T00:59:35.193Z,1004.85
2017-07-23T01:00:01.365Z,1004.85
2017-07-23T01:00:27.584Z,1004.82
2017-07-23T01:00:53.817Z,1004.87
2017-07-23T01:01:19.956Z,1004.82
2017-07-23T01:01:46.146Z,1004.81
2017-07-23T01:02:12.265Z,1004.84
2017-07-23T01:02:38.445Z,1004.81
2017-07-23T01:03:04.618Z,1004.81
2017-07-23T01:03:30.761Z,1004.84
2017-07-23T01:03:56.920Z,1004.85
2017-07-23T01:04:23.120Z,1004.84
2017-07-23T01:04:49.230Z,1004.84
2017-07-23T01:05:15.388Z,1004.84
2017-07-23T01:05:41.536Z,1004.82
2017-07-23T01:06:07.673Z,1004.83
2017-07-23T01:06:33.830Z,1004.84
2017-07-23T01:07:00.009Z,1004.82
2017-07-23T01:07:26.148Z,1004.86
2017-07-23T01:07:52.273Z,1004.84
2017-07-23T01:08:18.436Z,1004.87
2017-07-23T01:08:44.626Z,1004.86
2017-07-23T01:09:10.770Z,1004.87
2017-07-23T01:09:36.909Z,1004.88
2017-07-23T01:10:03.092Z,1004.87
2017-07-23T01:10:29.306Z,1004.83
2017-07-23T01:10:55.469Z,1004.85
2017-07-23T01:11:21.617Z,1004.82
2017-07-23T01:11:47.804Z,1004.82
2017-07-23T01:12:13.997Z,1004.85
2017-07-23T01:12:40.142Z,1004.83
2017-07-23T01:13:06.391Z,1004.84
2017-07-23T01:13:32.532Z,1004.84
2017-07-23T01:13:58.750Z,1004.81
2017-07-23T01:14:24.887Z,1004.85
2017-07-23T01:14:51.036Z,1004.87
2017-07-23T01:15:17.193Z,1004.88
2017-07-23T01:15:43.382Z,1004.86
2017-07-23T01:16:09.561Z,1004.83
2017-07-23T01:16:35.717Z,1004.88
2017-07-23T01:17:01.887Z,1004.88
2017-07-23T01:17:28.002Z,1004.89
2017-07-23T01:17:54.195Z,1004.87
2017-07-23T01:18:20.363Z,1004.89
2017-07-23T01:18:46.502Z,1004.87
2017-07-23T01:19:12.757Z,1004.85
2017-07-23T01:19:38.930Z,1004.82
2017-07-23T01:20:05.095Z,1004.83
2017-07-23T01:20:31.286Z,1004.8
2017-07-23T01:20:57.470Z,1004.79
2017-07-23T01:21:23.659Z,1004.77
2017-07-23T01:21:49.841Z,1004.74
2017-07-23T01:22:16.030Z,1004.72
2017-07-23T01:22:42.137Z,1004.69
2017-07-23T01:23:08.260Z,1004.68
2017-07-23T01:23:34.384Z,1004.71
2017-07-23T01:24:00.526Z,1004.66
2017-07-23T01:24:26.666Z,1004.68
2017-07-23T01:24:52.850Z,1004.63
2017-07-23T01:25:18.970Z,1004.66
2017-07-23T01:25:45.129Z,1004.66
2017-07-23T01:26:11.324Z,1004.63
2017-07-23T01:26:37.470Z,1004.66
2017-07-23T01:27:03.688Z,1004.68
2017-07-23T01:27:29.853Z,1004.69
2017-07-23T01:27:56.020Z,1004.67
2017-07-23T01:28:22.213Z,1004.67
2017-07-23T01:28:48.418Z,1004.69
2017-07-23T01:29:14.580Z,1004.7
2017-07-23T01:29:40.770Z,1004.69
2017-07-23T01:30:06.972Z,1004.71
2017-07-23T01:30:33.147Z,1004.73
2017-07-23T01:30:59.255Z,1004.63
2017-07-23T01:31:25.398Z,1004.72
2017-07-23T01:31:51.587Z,1004.72
2017-07-23T01:32:17.764Z,1004.74
2017-07-23T01:32:43.927Z,1004.69
2017-07-23T01:33:10.090Z,1004.73
2017-07-23T01:33:36.230Z,1004.72
2017-07-23T01:34:02.395Z,1004.72
2017-07-23T01:34:28.554Z,1004.74
2017-07-23T01:34:54.765Z,1004.71
2017-07-23T01:35:20.903Z,1004.74
2017-07-23T01:35:47.117Z,1004.72
2017-07-23T01:36:13.260Z,1004.73
2017-07-23T01:36:39.387Z,1004.7
2017-07-23T01:37:05.568Z,1004.7
2017-07-23T01:37:31.733Z,1004.71
2017-07-23T01:37:57.894Z,1004.7
2017-07-23T01:38:24.042Z,1004.72
2017-07-23T01:38:50.152Z,1004.76
2017-07-23T01:39:16.335Z,1004.78
2017-07-23T01:39:42.528Z,1004.73
2017-07-23T01:40:08.638Z,1004.74
2017-07-23T01:40:34.752Z,1004.73
2017-07-23T01:41:00.913Z,1004.76
2017-07-23T01:41:27.077Z,1004.74
2017-07-23T01:41:53.232Z,1004.72
2017-07-23T01:42:19.366Z,1004.75
2017-07-23T01:42:45.490Z,1004.68
2017-07-23T01:43:11.650Z,1004.72
2017-07-23T01:43:37.756Z,1004.74
2017-07-23T01:44:03.875Z,1004.75
2017-07-23T01:44:30.090Z,1004.76
2017-07-23T01:44:56.201Z,1004.78
2017-07-23T01:45:22.374Z,1004.78
2017-07-23T01:45:48.563Z,1004.79
2017-07-23T01:46:14.701Z,1004.81
2017-07-23T01:46:40.812Z,1004.82
2017-07-23T01:47:06.963Z,1004.82
2017-07-23T01:47:33.147Z,1004.82
2017-07-23T01:47:59.337Z,1004.79
2017-07-23T01:48:25.469Z,1004.78
2017-07-23T01:48:51.668Z,1004.8
2017-07-23T01:49:17.891Z,1004.81
2017-07-23T01:49:44.038Z,1004.77
2017-07-23T01:50:10.149Z,1004.77
2017-07-23T01:50:36.343Z,1004.77
2017-07-23T01:51:02.518Z,1004.84
2017-07-23T01:51:28.686Z,1004.89
2017-07-23T01:51:54.874Z,1004.87
2017-07-23T01:52:21.058Z,1004.93
2017-07-23T01:52:47.230Z,1004.91
2017-07-23T01:53:13.430Z,1004.96
2017-07-23T01:53:39.569Z,1004.91
2017-07-23T01:54:05.732Z,1004.91
2017-07-23T01:54:31.876Z,1004.94
2017-07-23T01:54:57.984Z,1004.86
2017-07-23T01:55:24.145Z,1004.86
2017-07-23T01:55:50.362Z,1004.89
2017-07-23T01:56:16.496Z,1004.85
2017-07-23T01:56:42.670Z,1004.9
2017-07-23T01:57:08.797Z,1004.89
2017-07-23T01:57:34.904Z,1004.88
2017-07-23T01:58:01.114Z,1004.88
2017-07-23T01:58:27.283Z,1004.87
2017-07-23T01:58:53.444Z,1004.87
2017-07-23T01:59:19.619Z,1004.86
2017-07-23T01:59:45.759Z,1004.86
2017-07-23T02:00:11.965Z,1004.79
2017-07-23T02:00:38.093Z,1004.8
2017-07-23T02:01:04.287Z,1004.81
2017-07-23T02:01:36.717Z,1004.73
2017-07-23T02:02:02.857Z,1004.7
2017-07-23T02:02:29.043Z,1004.71
2017-07-23T02:02:55.290Z,1004.66
2017-07-23T02:03:21.510Z,1004.66
2017-07-23T02:03:47.660Z,1004.62
2017-07-23T02:04:13.913Z,1004.64
2017-07-23T02:04:40.049Z,1004.6
2017-07-23T02:05:06.251Z,1004.62
2017-07-23T02:05:32.444Z,1004.63
2017-07-23T02:05:58.608Z,1004.58
2017-07-23T02:06:24.783Z,1004.58
2017-07-23T02:06:50.937Z,1004.6
2017-07-23T02:07:17.077Z,1004.58
2017-07-23T02:07:43.213Z,1004.52
2017-07-23T02:08:09.346Z,1004.53
2017-07-23T02:08:35.489Z,1004.49
2017-07-23T02:09:01.628Z,1004.49
2017-07-23T02:09:27.755Z,1004.49
2017-07-23T02:09:53.926Z,1004.46
2017-07-23T02:10:20.113Z,1004.46
2017-07-23T02:10:46.255Z,1004.44
2017-07-23T02:11:12.395Z,1004.39
2017-07-23T02:11:38.555Z,1004.37
2017-07-23T02:12:04.702Z,1004.36
2017-07-23T02:12:30.841Z,1004.33
2017-07-23T02:12:56.997Z,1004.33
2017-07-23T02:13:23.205Z,1004.34
2017-07-23T02:13:49.373Z,1004.35
2017-07-23T02:14:15.552Z,1004.37
2017-07-23T02:14:41.684Z,1004.38
2017-07-23T02:15:07.820Z,1004.4
2017-07-23T02:15:33.999Z,1004.4
2017-07-23T02:16:00.137Z,1004.44
2017-07-23T02:16:26.287Z,1004.4
2017-07-23T02:16:52.500Z,1004.42
2017-07-23T02:17:18.728Z,1004.41
2017-07-23T02:17:44.910Z,1004.42
2017-07-23T02:18:11.063Z,1004.42
2017-07-23T02:18:37.232Z,1004.44
2017-07-23T02:19:03.377Z,1004.44
2017-07-23T02:19:29.566Z,1004.47
2017-07-23T02:19:55.675Z,1004.46
2017-07-23T02:20:21.816Z,1004.46
2017-07-23T02:20:47.931Z,1004.47
2017-07-23T02:21:14.054Z,1004.49
2017-07-23T02:21:40.271Z,1004.45
2017-07-23T02:22:06.407Z,1004.46
2017-07-23T02:22:32.613Z,1004.48
2017-07-23T02:22:58.766Z,1004.44
2017-07-23T02:23:24.933Z,1004.43
2017-07-23T02:23:51.076Z,1004.46
2017-07-23T02:24:17.266Z,1004.47
2017-07-23T02:24:43.404Z,1004.44
2017-07-23T02:25:09.575Z,1004.45
2017-07-23T02:25:35.701Z,1004.46
2017-07-23T02:26:01.886Z,1004.44
2017-07-23T02:26:28.049Z,1004.4
2017-07-23T02:26:54.244Z,1004.36
2017-07-23T02:27:20.392Z,1004.37
2017-07-23T02:27:46.577Z,1004.39
2017-07-23T02:28:12.750Z,1004.36
2017-07-23T02:28:38.945Z,1004.36
2017-07-23T02:29:05.075Z,1004.33
2017-07-23T02:29:31.305Z,1004.37
2017-07-23T02:29:57.444Z,1004.38
2017-07-23T02:30:23.667Z,1004.41
2017-07-23T02:30:49.847Z,1004.35
2017-07-23T02:31:16.037Z,1004.47
2017-07-23T02:31:42.222Z,1004.48
2017-07-23T02:32:08.384Z,1004.52
2017-07-23T02:32:34.541Z,1004.54
2017-07-23T02:33:00.780Z,1004.5
2017-07-23T02:33:26.969Z,1004.5
2017-07-23T02:33:53.225Z,1004.55
2017-07-23T02:34:19.401Z,1004.49
2017-07-23T02:34:45.601Z,1004.51
2017-07-23T02:35:11.806Z,1004.5
2017-07-23T02:35:37.995Z,1004.54
2017-07-23T02:36:04.159Z,1004.62
2017-07-23T02:36:30.308Z,1004.57
2017-07-23T02:36:56.467Z,1004.57
2017-07-23T02:37:22.629Z,1004.6
2017-07-23T02:37:48.810Z,1004.63
2017-07-23T02:38:15.005Z,1004.58
2017-07-23T02:38:41.215Z,1004.6
2017-07-23T02:39:07.491Z,1004.62
2017-07-23T02:40:29.604Z,1004.63
2017-07-23T02:40:55.828Z,1004.63
2017-07-23T02:41:22.004Z,1004.65
2017-07-23T02:41:48.177Z,1004.61
2017-07-23T02:42:14.356Z,1004.61
2017-07-23T02:42:40.570Z,1004.63
2017-07-23T02:43:06.795Z,1004.56
2017-07-23T02:43:32.943Z,1004.54
2017-07-23T02:43:59.114Z,1004.53
2017-07-23T02:44:25.270Z,1004.52
2017-07-23T02:44:51.422Z,1004.46
2017-07-23T02:45:17.613Z,1004.46
2017-07-23T02:45:43.835Z,1004.48
2017-07-23T02:46:10.013Z,1004.41
2017-07-23T02:46:36.124Z,1004.4
2017-07-23T02:47:02.333Z,1004.36
2017-07-23T02:47:28.553Z,1004.34
2017-07-23T02:47:54.689Z,1004.36
2017-07-23T02:48:20.840Z,1004.29
2017-07-23T02:48:47.035Z,1004.29
2017-07-23T02:49:13.201Z,1004.28
2017-07-23T02:49:39.345Z,1004.29
2017-07-23T02:50:05.559Z,1004.25
2017-07-23T02:50:31.758Z,1004.28
2017-07-23T02:50:57.926Z,1004.31
2017-07-23T02:51:24.147Z,1004.33
2017-07-23T02:51:50.327Z,1004.34
2017-07-23T02:52:16.550Z,1004.39
2017-07-23T02:52:42.738Z,1004.38
2017-07-23T02:53:08.951Z,1004.39
2017-07-23T02:53:35.063Z,1004.34
2017-07-23T02:54:01.221Z,1004.37
2017-07-23T02:54:27.405Z,1004.35
2017-07-23T02:54:53.516Z,1004.31
2017-07-23T02:55:19.727Z,1004.32
2017-07-23T02:55:45.952Z,1004.26
2017-07-23T02:56:12.135Z,1004.23
2017-07-23T02:56:38.312Z,1004.25
2017-07-23T02:57:04.452Z,1004.28
2017-07-23T02:57:30.631Z,1004.24
2017-07-23T02:57:56.817Z,1004.27
2017-07-23T02:58:22.986Z,1004.29
2017-07-23T02:58:49.162Z,1004.26
2017-07-23T02:59:15.324Z,1004.29
2017-07-23T02:59:41.464Z,1004.29
2017-07-23T03:00:07.623Z,1004.3
2017-07-23T03:00:33.799Z,1004.27
2017-07-23T03:00:59.921Z,1004.26
2017-07-23T03:01:26.107Z,1004.26
2017-07-23T03:01:52.296Z,1004.27
2017-07-23T03:02:18.474Z,1004.28
2017-07-23T03:02:44.639Z,1004.29
2017-07-23T03:03:10.769Z,1004.26
2017-07-23T03:03:36.950Z,1004.32
2017-07-23T03:04:03.091Z,1004.31
2017-07-23T03:04:29.195Z,1004.35
2017-07-23T03:04:55.328Z,1004.36
2017-07-23T03:05:21.463Z,1004.38
2017-07-23T03:05:47.592Z,1004.36
2017-07-23T03:06:13.765Z,1004.37
2017-07-23T03:06:39.927Z,1004.39
2017-07-23T03:07:06.056Z,1004.39
2017-07-23T03:07:32.241Z,1004.44
2017-07-23T03:07:58.378Z,1004.44
2017-07-23T03:08:24.567Z,1004.43
2017-07-23T03:08:50.654Z,1004.41
2017-07-23T03:09:16.781Z,1004.45
2017-07-23T03:09:42.944Z,1004.5
2017-07-23T03:10:09.113Z,1004.49
2017-07-23T03:10:35.259Z,1004.48
2017-07-23T03:11:01.367Z,1004.52
2017-07-23T03:11:27.514Z,1004.52
2017-07-23T03:11:53.627Z,1004.53
2017-07-23T03:12:19.794Z,1004.56
2017-07-23T03:12:45.900Z,1004.54
2017-07-23T03:13:12.030Z,1004.56
2017-07-23T03:13:38.187Z,1004.57
2017-07-23T03:14:04.343Z,1004.58
2017-07-23T03:14:30.461Z,1004.58
2017-07-23T03:14:56.615Z,1004.61
2017-07-23T03:15:22.778Z,1004.67
2017-07-23T03:15:48.865Z,1004.63
2017-07-23T03:16:14.967Z,1004.66
2017-07-23T03:16:41.158Z,1004.7
2017-07-23T03:17:07.274Z,1004.69
2017-07-23T03:17:33.479Z,1004.64
2017-07-23T03:17:59.597Z,1004.68
2017-07-23T03:18:25.750Z,1004.7
2017-07-23T03:18:51.888Z,1004.69
2017-07-23T03:19:18.024Z,1004.71
2017-07-23T03:19:44.194Z,1004.75
2017-07-23T03:20:10.362Z,1004.71
2017-07-23T03:20:36.505Z,1004.73
2017-07-23T03:21:02.679Z,1004.73
2017-07-23T03:21:28.785Z,1004.74
2017-07-23T03:21:54.905Z,1004.71
2017-07-23T03:22:21.047Z,1004.74
2017-07-23T03:22:47.177Z,1004.75
2017-07-23T03:23:13.327Z,1004.72
2017-07-23T03:23:39.489Z,1004.75
2017-07-23T03:24:05.623Z,1004.74
2017-07-23T03:24:31.769Z,1004.75
2017-07-23T03:24:57.933Z,1004.75
2017-07-23T03:25:24.254Z,1004.79
2017-07-23T03:25:50.443Z,1004.79
2017-07-23T03:26:16.633Z,1004.8
2017-07-23T03:26:42.785Z,1004.81
2017-07-23T03:27:08.902Z,1004.84
2017-07-23T03:27:35.089Z,1004.84
2017-07-23T03:28:01.189Z,1004.85
2017-07-23T03:28:27.368Z,1004.8
2017-07-23T03:28:53.509Z,1004.82
2017-07-23T03:29:19.627Z,1004.84
2017-07-23T03:29:45.820Z,1004.86
2017-07-23T03:30:11.946Z,1004.9
2017-07-23T03:30:38.110Z,1004.86
2017-07-23T03:31:04.293Z,1004.91
2017-07-23T03:31:30.472Z,1004.9
2017-07-23T03:31:56.564Z,1004.89
2017-07-23T03:32:22.716Z,1004.94
2017-07-23T03:32:48.879Z,1004.91
2017-07-23T03:33:15.065Z,1004.94
2017-07-23T03:33:41.190Z,1004.91
2017-07-23T03:34:07.351Z,1004.93
2017-07-23T03:34:33.515Z,1004.94
2017-07-23T03:34:59.635Z,1004.92
2017-07-23T03:35:25.826Z,1004.93
2017-07-23T03:35:51.972Z,1004.91
2017-07-23T03:36:18.138Z,1004.92
2017-07-23T03:36:44.302Z,1004.92
2017-07-23T03:37:10.426Z,1004.95
2017-07-23T03:37:36.591Z,1004.92
2017-07-23T03:38:02.750Z,1004.87
2017-07-23T03:38:28.903Z,1004.93
2017-07-23T03:38:55.044Z,1004.92
2017-07-23T03:39:21.250Z,1004.95
2017-07-23T03:39:47.340Z,1004.96
2017-07-23T03:40:13.479Z,1004.99
2017-07-23T03:40:39.629Z,1004.91
2017-07-23T03:41:05.743Z,1004.95
2017-07-23T03:41:31.875Z,1004.95
2017-07-23T03:41:58.087Z,1004.89
2017-07-23T03:42:24.203Z,1004.9
2017-07-23T03:42:50.308Z,1004.93
2017-07-23T03:43:16.469Z,1004.89
2017-07-23T03:43:42.582Z,1004.89
2017-07-23T03:44:08.755Z,1004.91
2017-07-23T03:44:34.889Z,1004.91
2017-07-23T03:45:01.031Z,1004.86
2017-07-23T03:45:27.136Z,1004.87
2017-07-23T03:45:53.250Z,1004.86
2017-07-23T03:46:19.402Z,1004.86
2017-07-23T03:46:45.535Z,1004.84
2017-07-23T03:47:11.697Z,1004.85
2017-07-23T03:47:37.844Z,1004.84
2017-07-23T03:48:03.978Z,1004.83
2017-07-23T03:48:30.093Z,1004.84
2017-07-23T03:48:56.215Z,1004.84
2017-07-23T03:49:22.347Z,1004.84
2017-07-23T03:49:48.495Z,1004.84
2017-07-23T03:50:14.635Z,1004.86
2017-07-23T03:50:40.767Z,1004.88
2017-07-23T03:51:06.918Z,1004.87
2017-07-23T03:51:33.105Z,1004.86
2017-07-23T03:51:59.196Z,1004.86
2017-07-23T03:52:25.319Z,1004.91
2017-07-23T03:52:51.425Z,1004.85
2017-07-23T03:53:17.518Z,1004.86
2017-07-23T03:53:43.655Z,1004.9
2017-07-23T03:54:09.820Z,1004.92
2017-07-23T03:54:35.945Z,1004.9
2017-07-23T03:55:02.064Z,1004.9
2017-07-23T03:55:28.245Z,1004.89
2017-07-23T03:55:54.346Z,1004.88
2017-07-23T03:56:20.529Z,1004.94
2017-07-23T03:56:46.677Z,1004.91
2017-07-23T03:57:12.818Z,1004.9
2017-07-23T03:57:38.981Z,1004.91
2017-07-23T03:58:05.105Z,1004.95
2017-07-23T03:58:31.242Z,1004.98
2017-07-23T03:58:57.372Z,1004.98
2017-07-23T03:59:23.501Z,1004.97
2017-07-23T03:59:49.639Z,1005.02
2017-07-23T04:00:15.790Z,1005.05
2017-07-23T04:00:41.897Z,1005.06
2017-07-23T04:01:08.035Z,1005.1
2017-07-23T04:01:34.212Z,1005.14
2017-07-23T04:02:00.306Z,1005.12
2017-07-23T04:02:26.469Z,1005.14
2017-07-23T04:02:52.597Z,1005.16
2017-07-23T04:03:18.736Z,1005.13
2017-07-23T04:03:44.917Z,1005.11
2017-07-23T04:04:11.048Z,1005.15
2017-07-23T04:04:37.134Z,1005.14
2017-07-23T04:05:03.232Z,1005.15
2017-07-23T04:05:29.367Z,1005.17
2017-07-23T04:05:55.531Z,1005.17
2017-07-23T04:06:21.698Z,1005.11
2017-07-23T04:06:47.861Z,1005.13
2017-07-23T04:07:13.981Z,1005.14
2017-07-23T04:07:40.114Z,1005.2
2017-07-23T04:08:06.228Z,1005.15
2017-07-23T04:08:32.378Z,1005.19
2017-07-23T04:08:58.595Z,1005.2
2017-07-23T04:09:24.660Z,1005.23
2017-07-23T04:09:50.759Z,1005.23
2017-07-23T04:10:16.948Z,1005.25
2017-07-23T04:10:43.064Z,1005.26
2017-07-23T04:11:09.204Z,1005.26
2017-07-23T04:11:35.421Z,1005.3
2017-07-23T04:12:01.545Z,1005.32
2017-07-23T04:12:27.757Z,1005.26
2017-07-23T04:12:53.967Z,1005.27
2017-07-23T04:13:20.060Z,1005.26
2017-07-23T04:13:46.167Z,1005.28
2017-07-23T04:14:12.311Z,1005.29
2017-07-23T04:14:38.404Z,1005.27
2017-07-23T04:15:04.626Z,1005.26
2017-07-23T04:15:30.752Z,1005.25
2017-07-23T04:15:56.869Z,1005.29
2017-07-23T04:16:23.001Z,1005.34
2017-07-23T04:16:49.127Z,1005.31
2017-07-23T04:17:15.218Z,1005.35
2017-07-23T04:17:41.398Z,1005.32
2017-07-23T04:18:07.556Z,1005.32
2017-07-23T04:18:33.740Z,1005.37
2017-07-23T04:18:59.843Z,1005.36
2017-07-23T04:19:26.027Z,1005.4
2017-07-23T04:19:52.223Z,1005.41
2017-07-23T04:20:18.366Z,1005.42
2017-07-23T04:20:44.500Z,1005.42
2017-07-23T04:21:10.669Z,1005.41
2017-07-23T04:21:36.760Z,1005.44
2017-07-23T04:22:02.925Z,1005.41
2017-07-23T04:22:29.049Z,1005.43
2017-07-23T04:22:55.188Z,1005.46
2017-07-23T04:23:21.346Z,1005.45
2017-07-23T04:23:47.503Z,1005.45
2017-07-23T04:24:13.625Z,1005.46
2017-07-23T04:24:39.794Z,1005.44
2017-07-23T04:25:05.961Z,1005.47
2017-07-23T04:25:32.153Z,1005.4
2017-07-23T04:25:58.328Z,1005.4
2017-07-23T04:26:24.443Z,1005.39
2017-07-23T04:26:50.576Z,1005.42
2017-07-23T04:27:16.732Z,1005.43
2017-07-23T04:27:42.842Z,1005.39
2017-07-23T04:28:08.999Z,1005.35
2017-07-23T04:28:35.105Z,1005.43
2017-07-23T04:29:01.218Z,1005.39
2017-07-23T04:29:27.369Z,1005.42
2017-07-23T04:29:53.515Z,1005.44
2017-07-23T04:30:19.696Z,1005.43
2017-07-23T04:30:45.877Z,1005.38
2017-07-23T04:31:11.995Z,1005.43
2017-07-23T04:31:38.150Z,1005.44
2017-07-23T04:32:04.277Z,1005.43
2017-07-23T04:32:30.389Z,1005.44
2017-07-23T04:32:56.543Z,1005.42
2017-07-23T04:33:22.705Z,1005.46
2017-07-23T04:33:48.818Z,1005.46
2017-07-23T04:34:14.939Z,1005.49
2017-07-23T04:34:41.078Z,1005.5
2017-07-23T04:35:07.250Z,1005.49
2017-07-23T04:35:33.378Z,1005.52
2017-07-23T04:35:59.491Z,1005.5
2017-07-23T04:36:25.643Z,1005.57
2017-07-23T04:36:51.804Z,1005.53
2017-07-23T04:37:17.921Z,1005.54
2017-07-23T04:37:44.042Z,1005.58
2017-07-23T04:38:10.148Z,1005.57
2017-07-23T04:38:36.296Z,1005.55
2017-07-23T04:39:02.431Z,1005.57
2017-07-23T04:39:28.597Z,1005.56
2017-07-23T04:39:54.721Z,1005.59
2017-07-23T04:40:20.882Z,1005.54
2017-07-23T04:40:46.989Z,1005.55
2017-07-23T04:41:13.088Z,1005.55
2017-07-23T04:41:39.242Z,1005.52
2017-07-23T04:42:05.415Z,1005.56
2017-07-23T04:42:31.554Z,1005.53
2017-07-23T04:42:57.772Z,1005.58
2017-07-23T04:43:23.896Z,1005.58
2017-07-23T04:43:49.988Z,1005.61
2017-07-23T04:44:16.174Z,1005.6
2017-07-23T04:44:42.274Z,1005.56
2017-07-23T04:45:08.415Z,1005.56
2017-07-23T04:45:34.569Z,1005.57
2017-07-23T04:46:00.673Z,1005.61
2017-07-23T04:46:26.793Z,1005.58
2017-07-23T04:46:52.940Z,1005.56
2017-07-23T04:47:19.079Z,1005.57
2017-07-23T04:47:45.212Z,1005.6
2017-07-23T04:48:11.368Z,1005.57
2017-07-23T04:48:37.484Z,1005.56
2017-07-23T04:49:03.610Z,1005.62
2017-07-23T04:49:29.798Z,1005.57
2017-07-23T04:49:55.960Z,1005.64
2017-07-23T04:50:22.135Z,1005.61
2017-07-23T04:50:48.267Z,1005.58
2017-07-23T04:51:14.380Z,1005.59
2017-07-23T04:51:40.529Z,1005.6
2017-07-23T04:52:06.676Z,1005.66
2017-07-23T04:52:32.828Z,1005.59
2017-07-23T04:52:58.933Z,1005.61
2017-07-23T04:53:25.095Z,1005.59
2017-07-23T04:53:51.271Z,1005.58
2017-07-23T04:54:17.433Z,1005.59
2017-07-23T04:54:43.548Z,1005.58
2017-07-23T04:55:09.693Z,1005.58
2017-07-23T04:55:35.824Z,1005.56
2017-07-23T04:56:01.946Z,1005.58
2017-07-23T04:56:28.060Z,1005.6
2017-07-23T04:56:54.197Z,1005.57
2017-07-23T04:57:20.324Z,1005.56
2017-07-23T04:57:46.474Z,1005.56
2017-07-23T04:58:12.637Z,1005.55
2017-07-23T04:58:38.757Z,1005.52
2017-07-23T04:59:04.921Z,1005.54
2017-07-23T04:59:31.067Z,1005.61
2017-07-23T04:59:57.206Z,1005.54
2017-07-23T05:00:23.370Z,1005.52
2017-07-23T05:00:49.523Z,1005.47
2017-07-23T05:01:15.709Z,1005.49
2017-07-23T05:01:41.874Z,1005.46
2017-07-23T05:02:08.025Z,1005.46
2017-07-23T05:02:34.138Z,1005.48
2017-07-23T05:03:00.293Z,1005.42
2017-07-23T05:03:26.425Z,1005.45
2017-07-23T05:03:52.537Z,1005.47
2017-07-23T05:04:18.665Z,1005.52
2017-07-23T05:04:44.825Z,1005.53
2017-07-23T05:05:10.969Z,1005.53
2017-07-23T05:05:37.160Z,1005.55
2017-07-23T05:06:03.298Z,1005.57
2017-07-23T05:06:29.391Z,1005.62
2017-07-23T05:06:55.508Z,1005.62
2017-07-23T05:07:21.675Z,1005.64
2017-07-23T05:07:47.799Z,1005.66
2017-07-23T05:08:13.942Z,1005.64
2017-07-23T05:08:40.070Z,1005.73
2017-07-23T05:09:06.190Z,1005.7
2017-07-23T05:09:32.295Z,1005.72
2017-07-23T05:09:58.417Z,1005.72
2017-07-23T05:10:24.532Z,1005.7
2017-07-23T05:10:50.667Z,1005.72
2017-07-23T05:11:16.820Z,1005.74
2017-07-23T05:11:42.933Z,1005.72
2017-07-23T05:12:09.095Z,1005.71
2017-07-23T05:12:35.224Z,1005.71
2017-07-23T05:13:01.362Z,1005.66
2017-07-23T05:13:27.520Z,1005.69
2017-07-23T05:13:53.654Z,1005.7
2017-07-23T05:14:19.772Z,1005.79
2017-07-23T05:14:45.924Z,1005.75
2017-07-23T05:15:12.040Z,1005.77
2017-07-23T05:15:38.172Z,1005.76
2017-07-23T05:16:04.301Z,1005.8
2017-07-23T05:16:30.412Z,1005.76
2017-07-23T05:16:56.541Z,1005.78
2017-07-23T05:17:22.728Z,1005.78
2017-07-23T05:17:48.869Z,1005.82
2017-07-23T05:18:15.017Z,1005.74